Shenandoah Heights, Pennsylvania
Current Conditions -  °F | °C
As of 6:35 AM on Saturday 25 Oct 2014 (Local Time) from KHZL Reporting Station
Clear Clear  
Wind Chill: 45°   Ceiling: Unl
Heat Index: 45°   Visibility: 10mi
Dew Point: 34°   Wind: 3mph
Humidity: 66%   Direction: 280°W
Pressure: 29.93"   Gusts: NA
Location:  40.8208°N, 76.1672°W
Report Text: KHZL 251035Z AUTO 28003KT 10SM CLR 07/01 A2993 RMK AO2
Loading
Personal Weather Stations






























Interactive Weather Map
Tropical Storm Tracking
New forecast layout! Learn more

10-Day Weather Forecast

Advertisements
Track Severe Weather on mobile